createdAt,value
2023-11-10T00:02:24.271Z,99371.03
2023-11-10T00:04:51.417Z,99375.19
2023-11-10T00:07:18.622Z,99360.78
2023-11-10T00:09:48.941Z,99374.34
2023-11-10T00:12:16.198Z,99374.47
2023-11-10T00:14:43.157Z,99379.66
2023-11-10T00:17:11.131Z,99380.28
2023-11-10T00:19:38.731Z,99377.88
2023-11-10T00:22:06.139Z,99378.63
2023-11-10T00:24:38.578Z,99378.47
2023-11-10T00:27:05.604Z,99380.94
2023-11-10T00:29:32.122Z,99383.19
2023-11-10T00:31:58.573Z,99380.28
2023-11-10T00:34:25.150Z,99385.88
2023-11-10T00:36:51.743Z,99396.78
2023-11-10T00:39:20.951Z,99391.38
2023-11-10T00:41:47.820Z,99386.44
2023-11-10T00:44:14.373Z,99382.13
2023-11-10T00:46:40.831Z,99372.63
2023-11-10T00:49:07.357Z,99367.44
2023-11-10T00:51:33.822Z,99362.09
2023-11-10T00:54:01.322Z,99359.69
2023-11-10T00:56:27.887Z,99362.44
2023-11-10T00:58:54.572Z,99366.94
2023-11-10T01:01:21.199Z,99365.69
2023-11-10T01:03:47.933Z,99357.00
2023-11-10T01:06:15.714Z,99354.75
2023-11-10T01:08:42.380Z,99341.97
2023-11-10T01:11:08.781Z,99336.56
2023-11-10T01:13:38.581Z,99327.44
2023-11-10T01:16:05.997Z,99340.22
2023-11-10T01:18:35.100Z,99346.78
2023-11-10T01:21:02.540Z,99345.75
2023-11-10T01:23:29.216Z,99328.06
2023-11-10T01:25:55.784Z,99334.84
2023-11-10T01:28:22.279Z,99317.78
2023-11-10T01:30:48.794Z,99326.44
2023-11-10T01:33:15.403Z,99321.28
2023-11-10T01:35:42.020Z,99320.47
2023-11-10T01:38:09.280Z,99315.53
2023-11-10T01:40:42.661Z,99300.09
2023-11-10T01:43:10.977Z,99299.88
2023-11-10T01:45:37.810Z,99305.81
2023-11-10T01:48:06.118Z,99298.41
2023-11-10T01:50:33.774Z,99292.59
2023-11-10T01:53:02.357Z,99289.94
2023-11-10T01:55:29.369Z,99287.25
2023-11-10T01:57:56.850Z,99284.69
2023-11-10T02:00:31.399Z,99288.41
2023-11-10T02:03:05.671Z,99287.16
2023-11-10T02:05:35.924Z,99291.66
2023-11-10T02:08:07.356Z,99292.78
2023-11-10T02:10:35.340Z,99294.47
2023-11-10T02:13:02.007Z,99296.69
2023-11-10T02:15:31.418Z,99295.75
2023-11-10T02:17:58.095Z,99292.31
2023-11-10T02:20:25.020Z,99289.44
2023-11-10T02:22:52.243Z,99279.38
2023-11-10T02:25:20.144Z,99274.19
2023-11-10T02:27:47.485Z,99272.16
2023-11-10T02:30:15.129Z,99265.56
2023-11-10T02:32:44.459Z,99264.97
2023-11-10T02:35:11.487Z,99264.72
2023-11-10T02:37:38.388Z,99271.75
2023-11-10T02:40:06.862Z,99274.69
2023-11-10T02:42:34.938Z,99274.19
2023-11-10T02:45:01.918Z,99278.31
2023-11-10T02:47:28.482Z,99272.16
2023-11-10T02:49:54.936Z,99265.59
2023-11-10T02:52:21.492Z,99261.66
2023-11-10T02:54:48.060Z,99264.16
2023-11-10T02:57:14.609Z,99267.41
2023-11-10T02:59:41.039Z,99279.16
2023-11-10T03:02:07.514Z,99281.16
2023-11-10T03:04:34.157Z,99269.72
2023-11-10T03:07:00.761Z,99257.78
2023-11-10T03:09:27.631Z,99253.84
2023-11-10T03:11:54.797Z,99248.50
2023-11-10T03:14:22.494Z,99249.16
2023-11-10T03:16:49.467Z,99246.69
2023-11-10T03:19:15.979Z,99248.50
2023-11-10T03:21:42.542Z,99245.22
2023-11-10T03:24:09.136Z,99252.63
2023-11-10T03:26:36.272Z,99252.44
2023-11-10T03:29:04.138Z,99254.50
2023-11-10T03:31:31.699Z,99244.16
2023-11-10T03:33:58.306Z,99242.97
2023-11-10T03:36:24.724Z,99245.84
2023-11-10T03:38:51.571Z,99242.31
2023-11-10T03:41:19.069Z,99235.13
2023-11-10T03:43:46.065Z,99235.09
2023-11-10T03:46:12.671Z,99240.84
2023-11-10T03:48:39.319Z,99234.84
2023-11-10T03:51:13.028Z,99225.22
2023-11-10T03:53:43.154Z,99219.31
2023-11-10T03:56:09.861Z,99222.16
2023-11-10T03:58:36.708Z,99217.59
2023-11-10T04:01:08.644Z,99226.03
2023-11-10T04:03:35.411Z,99218.41
2023-11-10T04:06:01.987Z,99206.56
2023-11-10T04:08:28.508Z,99203.03
2023-11-10T04:10:55.009Z,99204.31
2023-11-10T04:13:21.592Z,99206.78
2023-11-10T04:15:49.356Z,99205.38
2023-11-10T04:18:17.639Z,99200.78
2023-11-10T04:20:47.321Z,99206.41
2023-11-10T04:23:16.810Z,99200.66
2023-11-10T04:25:43.683Z,99197.78
2023-11-10T04:28:13.319Z,99195.72
2023-11-10T04:30:40.751Z,99193.88
2023-11-10T04:33:07.826Z,99173.91
2023-11-10T04:35:34.442Z,99176.34
2023-11-10T04:38:02.301Z,99180.91
2023-11-10T04:40:29.357Z,99183.38
2023-11-10T04:42:57.153Z,99180.13
2023-11-10T04:45:26.047Z,99178.44
2023-11-10T04:47:54.748Z,99178.81
2023-11-10T04:50:21.594Z,99169.34
2023-11-10T04:52:49.557Z,99174.47
2023-11-10T04:55:16.486Z,99169.16
2023-11-10T04:57:43.255Z,99169.28
2023-11-10T05:00:10.488Z,99168.88
2023-11-10T05:02:37.020Z,99163.34
2023-11-10T05:05:04.544Z,99159.44
2023-11-10T05:07:31.045Z,99158.28
2023-11-10T05:09:58.588Z,99154.34
2023-11-10T05:12:25.559Z,99152.78
2023-11-10T05:14:52.064Z,99160.00
2023-11-10T05:17:18.564Z,99150.75
2023-11-10T05:19:45.175Z,99152.16
2023-11-10T05:22:12.499Z,99155.41
2023-11-10T05:24:39.441Z,99153.41
2023-11-10T05:27:06.648Z,99153.16
2023-11-10T05:29:33.224Z,99152.91
2023-11-10T05:32:00.707Z,99150.22
2023-11-10T05:34:27.351Z,99157.56
2023-11-10T05:36:53.781Z,99154.75
2023-11-10T05:39:20.435Z,99154.06
2023-11-10T05:41:47.025Z,99151.16
2023-11-10T05:44:13.571Z,99160.50
2023-11-10T05:46:40.283Z,99156.56
2023-11-10T05:49:07.490Z,99156.94
2023-11-10T05:51:34.491Z,99156.00
2023-11-10T05:54:01.122Z,99158.28
2023-11-10T05:56:27.525Z,99153.72
2023-11-10T05:58:54.012Z,99159.88
2023-11-10T06:01:24.837Z,99155.31
2023-11-10T06:03:52.104Z,99152.88
2023-11-10T06:06:18.975Z,99160.19
2023-11-10T06:08:46.141Z,99161.84
2023-11-10T06:11:22.954Z,99161.22
2023-11-10T06:13:52.709Z,99173.53
2023-11-10T06:16:20.360Z,99166.94
2023-11-10T06:18:47.139Z,99170.63
2023-11-10T06:21:14.029Z,99165.50
2023-11-10T06:23:41.056Z,99156.50
2023-11-10T06:26:08.026Z,99161.44
2023-11-10T06:28:37.437Z,99160.41
2023-11-10T06:31:05.687Z,99152.81
2023-11-10T06:33:33.086Z,99162.44
2023-11-10T06:36:00.048Z,99150.94
2023-11-10T06:38:27.032Z,99155.47
2023-11-10T06:40:54.652Z,99152.97
2023-11-10T06:43:21.629Z,99151.72
2023-11-10T06:45:48.902Z,99164.06
2023-11-10T06:48:18.660Z,99156.66
2023-11-10T06:50:45.827Z,99166.13
2023-11-10T06:53:12.538Z,99155.88
2023-11-10T06:55:39.974Z,99173.75
2023-11-10T06:58:08.185Z,99170.03
2023-11-10T07:00:34.900Z,99180.91
2023-11-10T07:03:01.892Z,99182.78
2023-11-10T07:05:28.489Z,99176.84
2023-11-10T07:07:55.559Z,99189.75
2023-11-10T07:10:22.315Z,99178.44
2023-11-10T07:12:48.879Z,99184.81
2023-11-10T07:15:15.422Z,99186.63
2023-11-10T07:17:44.762Z,99182.09
2023-11-10T07:20:11.789Z,99178.19
2023-11-10T07:22:41.141Z,99174.72
2023-11-10T07:25:08.349Z,99180.09
2023-11-10T07:27:35.527Z,99169.88
2023-11-10T07:30:02.204Z,99170.28
2023-11-10T07:32:30.604Z,99159.97
2023-11-10T07:35:00.132Z,99169.63
2023-11-10T07:37:28.088Z,99163.91
2023-11-10T07:39:54.547Z,99159.13
2023-11-10T07:42:22.435Z,99160.94
2023-11-10T07:44:49.008Z,99148.97
2023-11-10T07:47:15.500Z,99157.59
2023-11-10T07:49:42.601Z,99156.09
2023-11-10T07:52:10.184Z,99156.09
2023-11-10T07:54:36.836Z,99157.72
2023-11-10T07:57:03.653Z,99154.84
2023-11-10T07:59:30.151Z,99162.03
2023-11-10T08:01:56.669Z,99146.75
2023-11-10T08:04:23.296Z,99140.19
2023-11-10T08:06:50.063Z,99136.63
2023-11-10T08:09:16.825Z,99138.88
2023-11-10T08:11:52.416Z,99137.78
2023-11-10T08:14:21.739Z,99134.34
2023-11-10T08:16:50.114Z,99132.56
2023-11-10T08:19:18.704Z,99131.19
2023-11-10T08:21:46.205Z,99123.72
2023-11-10T08:24:12.745Z,99127.81
2023-11-10T08:26:39.897Z,99122.69
2023-11-10T08:29:10.775Z,99129.06
2023-11-10T08:31:37.553Z,99129.59
2023-11-10T08:34:04.304Z,99123.66
2023-11-10T08:36:36.399Z,99129.00
2023-11-10T08:39:02.991Z,99126.78
2023-11-10T08:41:29.682Z,99120.50
2023-11-10T08:43:56.144Z,99113.59
2023-11-10T08:46:23.261Z,99112.53
2023-11-10T08:48:49.924Z,99106.88
2023-11-10T08:51:16.938Z,99109.69
2023-11-10T08:53:46.381Z,99106.66
2023-11-10T08:56:13.500Z,99109.50
2023-11-10T08:58:40.838Z,99111.59
2023-11-10T09:01:08.739Z,99112.31
2023-11-10T09:03:35.375Z,99099.41
2023-11-10T09:06:01.964Z,99107.78
2023-11-10T09:08:28.384Z,99111.44
2023-11-10T09:10:54.969Z,99097.88
2023-11-10T09:13:21.454Z,99101.59
2023-11-10T09:15:56.808Z,99105.41
2023-11-10T09:18:31.620Z,99106.72
2023-11-10T09:20:58.170Z,99105.31
2023-11-10T09:23:24.554Z,99098.19
2023-11-10T09:25:52.146Z,99095.06
2023-11-10T09:28:19.189Z,99091.75
2023-11-10T09:30:45.698Z,99099.22
2023-11-10T09:33:12.281Z,99085.75
2023-11-10T09:35:39.091Z,99094.69
2023-11-10T09:38:05.629Z,99089.72
2023-11-10T09:40:32.034Z,99088.38
2023-11-10T09:43:00.429Z,99073.94
2023-11-10T09:45:28.323Z,99063.09
2023-11-10T09:47:55.739Z,99071.31
2023-11-10T09:50:23.156Z,99063.28
2023-11-10T09:52:51.981Z,99059.59
2023-11-10T09:55:18.870Z,99049.34
2023-11-10T09:57:50.541Z,99050.91
2023-11-10T10:00:19.892Z,99050.75
2023-11-10T10:02:46.532Z,99041.88
2023-11-10T10:05:13.129Z,99035.78
2023-11-10T10:07:40.239Z,99032.97
2023-11-10T10:10:10.960Z,99037.53
2023-11-10T10:12:38.634Z,99011.03
2023-11-10T10:15:05.840Z,99010.53
2023-11-10T10:17:38.036Z,99000.16
2023-11-10T10:20:06.090Z,98995.38
2023-11-10T10:22:33.897Z,99005.25
2023-11-10T10:25:00.572Z,98997.13
2023-11-10T10:27:27.169Z,98984.47
2023-11-10T10:29:53.760Z,98976.47
2023-11-10T10:32:20.767Z,98970.97
2023-11-10T10:34:47.332Z,98982.63
2023-11-10T10:37:13.926Z,98971.56
2023-11-10T10:39:41.812Z,98975.84
2023-11-10T10:42:15.420Z,98969.44
2023-11-10T10:44:45.498Z,98962.00
2023-11-10T10:47:13.456Z,98964.94
2023-11-10T10:49:42.015Z,98944.50
2023-11-10T10:52:09.780Z,98949.25
2023-11-10T10:54:38.184Z,98948.53
2023-11-10T10:57:06.125Z,98941.22
2023-11-10T10:59:37.128Z,98924.63
2023-11-10T11:02:04.688Z,98931.50
2023-11-10T11:04:45.303Z,98915.53
2023-11-10T11:07:30.721Z,98914.03
2023-11-10T11:10:09.870Z,98903.31
2023-11-10T11:12:55.246Z,98889.50
2023-11-10T11:15:47.387Z,98900.84
2023-11-10T11:18:19.965Z,98887.88
2023-11-10T11:20:48.575Z,98883.59
2023-11-10T11:23:16.208Z,98879.28
2023-11-10T11:25:42.814Z,98872.03
2023-11-10T11:28:09.734Z,98871.56
2023-11-10T11:30:38.097Z,98869.13
2023-11-10T11:33:14.140Z,98870.50
2023-11-10T11:35:49.235Z,98865.78
2023-11-10T11:38:33.377Z,98857.59
2023-11-10T11:41:04.444Z,98853.56
2023-11-10T11:43:34.187Z,98847.75
2023-11-10T11:46:02.924Z,98844.00
2023-11-10T11:48:31.354Z,98846.69
2023-11-10T11:50:58.110Z,98843.88
2023-11-10T11:53:24.670Z,98843.78
2023-11-10T11:55:56.574Z,98845.69
2023-11-10T11:58:23.725Z,98854.03
2023-11-10T12:00:51.266Z,98851.16
2023-11-10T12:03:18.192Z,98861.84
2023-11-10T12:05:45.225Z,98847.75
2023-11-10T12:08:17.211Z,98857.09
2023-11-10T12:10:46.925Z,98842.38
2023-11-10T12:13:18.131Z,98832.69
2023-11-10T12:15:45.058Z,98837.00
2023-11-10T12:18:12.506Z,98832.59
2023-11-10T12:20:39.028Z,98827.00
2023-11-10T12:23:05.582Z,98826.84
2023-11-10T12:25:39.078Z,98823.94
2023-11-10T12:28:11.173Z,98825.63
2023-11-10T12:30:37.805Z,98818.81
2023-11-10T12:33:04.861Z,98824.78
2023-11-10T12:35:31.513Z,98821.50
2023-11-10T12:37:58.168Z,98812.88
2023-11-10T12:40:26.143Z,98812.88
2023-11-10T12:42:52.771Z,98803.31
2023-11-10T12:45:20.765Z,98809.06
2023-11-10T12:48:00.387Z,98808.97
2023-11-10T12:50:32.428Z,98812.72
2023-11-10T12:52:58.924Z,98805.63
2023-11-10T12:55:25.402Z,98801.47
2023-11-10T12:57:53.514Z,98805.22
2023-11-10T13:00:20.292Z,98803.44
2023-11-10T13:02:47.176Z,98800.75
2023-11-10T13:05:18.934Z,98803.69
2023-11-10T13:07:45.449Z,98800.66
2023-11-10T13:10:14.910Z,98795.50
2023-11-10T13:12:41.771Z,98795.03
2023-11-10T13:15:09.522Z,98793.53
2023-11-10T13:17:37.894Z,98791.09
2023-11-10T13:20:07.969Z,98790.13
2023-11-10T13:22:34.534Z,98787.91
2023-11-10T13:25:01.622Z,98780.56
2023-11-10T13:27:28.920Z,98777.41
2023-11-10T13:29:55.564Z,98774.03
2023-11-10T13:32:22.270Z,98771.34
2023-11-10T13:34:49.113Z,98766.47
2023-11-10T13:37:16.207Z,98760.31
2023-11-10T13:39:43.806Z,98762.09
2023-11-10T13:42:12.074Z,98756.28
2023-11-10T13:44:39.654Z,98754.38
2023-11-10T13:47:07.478Z,98746.44
2023-11-10T13:49:34.324Z,98747.06
2023-11-10T13:52:00.893Z,98751.00
2023-11-10T13:54:31.089Z,98744.22
2023-11-10T13:56:59.337Z,98744.06
2023-11-10T13:59:26.151Z,98746.56
2023-11-10T14:01:52.728Z,98736.78
2023-11-10T14:04:20.627Z,98728.81
2023-11-10T14:06:48.685Z,98734.16
2023-11-10T14:09:16.562Z,98727.06
2023-11-10T14:11:43.412Z,98725.78
2023-11-10T14:14:11.294Z,98726.19
2023-11-10T14:16:38.354Z,98722.19
2023-11-10T14:19:07.428Z,98719.84
2023-11-10T14:21:34.901Z,98715.00
2023-11-10T14:24:01.585Z,98707.91
2023-11-10T14:26:28.411Z,98703.50
2023-11-10T14:28:55.433Z,98695.91
2023-11-10T14:31:22.398Z,98703.50
2023-11-10T14:33:49.777Z,98701.88
2023-11-10T14:36:20.536Z,98703.63
2023-11-10T14:38:56.047Z,98701.59
2023-11-10T14:41:25.065Z,98698.34
2023-11-10T14:43:52.715Z,98698.66
2023-11-10T14:46:20.843Z,98689.50
2023-11-10T14:48:48.371Z,98687.19
2023-11-10T14:51:27.082Z,98685.75
2023-11-10T14:53:53.660Z,98685.31
2023-11-10T14:56:20.088Z,98685.59
2023-11-10T14:58:48.182Z,98680.03
2023-11-10T15:01:15.683Z,98682.81
2023-11-10T15:03:48.112Z,98682.72
2023-11-10T15:06:17.492Z,98680.41
2023-11-10T15:08:44.268Z,98690.41
2023-11-10T15:11:10.770Z,98673.59
2023-11-10T15:13:37.350Z,98675.25
2023-11-10T15:16:06.144Z,98675.03
2023-11-10T15:18:33.023Z,98665.47
2023-11-10T15:20:59.881Z,98673.28
2023-11-10T15:23:26.408Z,98685.50
2023-11-10T15:25:52.998Z,98680.50
2023-11-10T15:28:19.518Z,98678.28
2023-11-10T15:30:46.380Z,98672.72
2023-11-10T15:33:14.905Z,98673.66
2023-11-10T15:35:47.137Z,98678.28
2023-11-10T15:38:17.392Z,98674.44
2023-11-10T15:40:46.612Z,98673.50
2023-11-10T15:43:13.641Z,98675.59
2023-11-10T15:45:41.554Z,98669.78
2023-11-10T15:48:08.985Z,98670.59
2023-11-10T15:50:36.105Z,98676.44
2023-11-10T15:53:02.598Z,98668.75
2023-11-10T15:55:29.081Z,98674.00
2023-11-10T15:57:55.772Z,98668.19
2023-11-10T16:00:22.596Z,98672.94
2023-11-10T16:02:50.119Z,98672.56
2023-11-10T16:05:18.826Z,98675.72
2023-11-10T16:07:45.770Z,98663.63
2023-11-10T16:10:12.636Z,98672.84
2023-11-10T16:12:39.934Z,98669.13
2023-11-10T16:15:09.024Z,98682.03
2023-11-10T16:17:36.375Z,98670.97
2023-11-10T16:20:04.740Z,98669.53
2023-11-10T16:22:32.780Z,98668.06
2023-11-10T16:24:59.956Z,98668.97
2023-11-10T16:27:29.176Z,98669.91
2023-11-10T16:29:56.358Z,98667.00
2023-11-10T16:32:29.451Z,98671.13
2023-11-10T16:34:56.779Z,98674.31
2023-11-10T16:37:23.713Z,98667.97
2023-11-10T16:39:51.207Z,98668.69
2023-11-10T16:42:17.866Z,98670.72
2023-11-10T16:44:44.314Z,98672.03
2023-11-10T16:47:11.280Z,98668.66
2023-11-10T16:49:37.829Z,98675.16
2023-11-10T16:52:05.637Z,98675.16
2023-11-10T16:54:34.602Z,98680.41
2023-11-10T16:57:01.873Z,98672.28
2023-11-10T16:59:28.907Z,98670.25
2023-11-10T17:01:57.506Z,98674.25
2023-11-10T17:04:24.616Z,98664.09
2023-11-10T17:06:51.262Z,98666.66
2023-11-10T17:09:17.750Z,98675.34
2023-11-10T17:11:44.373Z,98662.41
2023-11-10T17:14:11.062Z,98669.25
2023-11-10T17:16:37.754Z,98668.94
2023-11-10T17:19:04.434Z,98673.06
2023-11-10T17:21:31.618Z,98663.19
2023-11-10T17:23:58.653Z,98664.47
2023-11-10T17:26:25.812Z,98664.19
2023-11-10T17:28:52.549Z,98659.75
2023-11-10T17:31:19.758Z,98664.09
2023-11-10T17:33:47.168Z,98665.38
2023-11-10T17:36:13.746Z,98657.94
2023-11-10T17:38:41.409Z,98654.81
2023-11-10T17:41:09.877Z,98654.53
2023-11-10T17:43:37.205Z,98661.50
2023-11-10T17:46:04.516Z,98649.31
2023-11-10T17:48:31.387Z,98656.47
2023-11-10T17:51:04.076Z,98646.03
2023-11-10T17:53:36.760Z,98652.13
2023-11-10T17:56:04.602Z,98650.28
2023-11-10T17:58:32.328Z,98654.75
2023-11-10T18:00:59.889Z,98652.56
2023-11-10T18:03:26.448Z,98654.66
2023-11-10T18:05:53.258Z,98658.59
2023-11-10T18:08:19.741Z,98643.22
2023-11-10T18:10:48.008Z,98644.75
2023-11-10T18:13:14.633Z,98633.81
2023-11-10T18:15:41.653Z,98621.91
2023-11-10T18:18:08.233Z,98621.81
2023-11-10T18:20:36.009Z,98615.88
2023-11-10T18:23:02.800Z,98619.34
2023-11-10T18:25:29.515Z,98622.63
2023-11-10T18:27:56.107Z,98617.03
2023-11-10T18:30:23.233Z,98611.34
2023-11-10T18:32:50.350Z,98612.50
2023-11-10T18:35:18.757Z,98609.78
2023-11-10T18:37:45.488Z,98599.56
2023-11-10T18:40:12.413Z,98605.63
2023-11-10T18:42:45.095Z,98597.34
2023-11-10T18:45:14.989Z,98599.56
2023-11-10T18:47:42.202Z,98597.66
2023-11-10T18:50:10.130Z,98601.94
2023-11-10T18:52:37.030Z,98595.69
2023-11-10T18:55:04.384Z,98602.13
2023-11-10T18:57:31.940Z,98594.44
2023-11-10T18:59:59.069Z,98587.94
2023-11-10T19:02:25.867Z,98591.53
2023-11-10T19:04:52.623Z,98583.63
2023-11-10T19:07:19.272Z,98571.97
2023-11-10T19:09:48.324Z,98572.09
2023-11-10T19:12:16.010Z,98563.13
2023-11-10T19:14:46.534Z,98563.59
2023-11-10T19:17:14.859Z,98563.13
2023-11-10T19:19:43.522Z,98565.44
2023-11-10T19:22:10.710Z,98556.47
2023-11-10T19:24:37.356Z,98557.88
2023-11-10T19:27:04.187Z,98562.75
2023-11-10T19:29:31.338Z,98555.06
2023-11-10T19:31:58.735Z,98550.53
2023-11-10T19:34:25.492Z,98549.03
2023-11-10T19:36:54.212Z,98543.31
2023-11-10T19:39:20.709Z,98535.63
2023-11-10T19:41:47.124Z,98537.25
2023-11-10T19:44:15.258Z,98537.94
2023-11-10T19:46:42.663Z,98526.66
2023-11-10T19:49:10.977Z,98537.00
2023-11-10T19:56:47.927Z,98523.16
2023-11-10T20:01:45.153Z,98511.97
2023-11-10T20:04:14.283Z,98503.72
2023-11-10T20:06:41.547Z,98506.25
2023-11-10T20:09:08.500Z,98497.66
2023-11-10T20:11:35.089Z,98497.22
2023-11-10T20:14:01.644Z,98497.19
2023-11-10T20:16:28.264Z,98505.03
2023-11-10T20:18:54.820Z,98500.38
2023-11-10T20:21:24.239Z,98498.16
2023-11-10T20:23:50.786Z,98493.75
2023-11-10T20:26:17.355Z,98487.75
2023-11-10T20:28:43.869Z,98495.44
2023-11-10T20:31:10.437Z,98486.22
2023-11-10T20:33:37.290Z,98488.25
2023-11-10T20:36:06.194Z,98482.94
2023-11-10T20:38:32.983Z,98491.63
2023-11-10T20:40:59.640Z,98482.19
2023-11-10T20:43:26.130Z,98494.25
2023-11-10T20:45:54.074Z,98487.72
2023-11-10T20:48:20.772Z,98481.88
2023-11-10T20:50:47.487Z,98479.53
2023-11-10T20:53:13.897Z,98482.56
2023-11-10T20:55:40.589Z,98475.72
2023-11-10T20:58:07.966Z,98475.31
2023-11-10T21:00:37.338Z,98472.31
2023-11-10T21:03:04.631Z,98473.13
2023-11-10T21:05:34.005Z,98464.22
2023-11-10T21:08:00.519Z,98457.88
2023-11-10T21:10:27.127Z,98460.16
2023-11-10T21:12:56.113Z,98452.03
2023-11-10T21:15:27.218Z,98463.66
2023-11-10T21:17:57.082Z,98462.38
2023-11-10T21:20:23.662Z,98464.22
2023-11-10T21:22:50.358Z,98455.50
2023-11-10T21:25:16.866Z,98457.78
2023-11-10T21:27:43.547Z,98458.44
2023-11-10T21:30:10.633Z,98461.13
2023-11-10T21:32:38.736Z,98451.31
2023-11-10T21:35:06.799Z,98444.50
2023-11-10T21:37:33.718Z,98459.56
2023-11-10T21:40:00.926Z,98450.81
2023-11-10T21:42:28.153Z,98458.66
2023-11-10T21:44:54.614Z,98455.13
2023-11-10T21:47:21.118Z,98445.38
2023-11-10T21:49:50.307Z,98445.84
2023-11-10T21:52:16.875Z,98446.28
2023-11-10T21:54:45.995Z,98449.81
2023-11-10T21:57:12.558Z,98437.25
2023-11-10T21:59:40.002Z,98438.63
2023-11-10T22:02:06.833Z,98440.97
2023-11-10T22:04:33.473Z,98435.19
2023-11-10T22:07:00.727Z,98433.00
2023-11-10T22:09:27.345Z,98429.03
2023-11-10T22:11:53.777Z,98425.78
2023-11-10T22:14:22.034Z,98431.13
2023-11-10T22:16:48.633Z,98433.00
2023-11-10T22:19:15.043Z,98428.91
2023-11-10T22:21:46.188Z,98438.47
2023-11-10T22:24:12.817Z,98430.56
2023-11-10T22:26:40.102Z,98422.66
2023-11-10T22:29:06.814Z,98426.47
2023-11-10T22:31:33.403Z,98429.28
2023-11-10T22:33:59.958Z,98414.97
2023-11-10T22:36:26.455Z,98420.91
2023-11-10T22:38:52.938Z,98420.69
2023-11-10T22:41:19.432Z,98409.84
2023-11-10T22:43:46.281Z,98426.13
2023-11-10T22:46:14.986Z,98419.28
2023-11-10T22:48:42.100Z,98411.13
2023-11-10T22:51:09.433Z,98401.25
2023-11-10T22:53:37.179Z,98406.22
2023-11-10T22:56:04.845Z,98399.75
2023-11-10T22:58:31.345Z,98405.84
2023-11-10T23:00:58.141Z,98399.81
2023-11-10T23:03:24.758Z,98396.38
2023-11-10T23:05:51.184Z,98401.19
2023-11-10T23:08:17.743Z,98400.28
2023-11-10T23:10:46.016Z,98403.13
2023-11-10T23:13:13.216Z,98398.94
2023-11-10T23:15:39.950Z,98391.66
2023-11-10T23:18:06.693Z,98395.38
2023-11-10T23:20:34.877Z,98399.81
2023-11-10T23:23:03.818Z,98394.50
2023-11-10T23:25:30.766Z,98398.44
2023-11-10T23:27:57.770Z,98392.28
2023-11-10T23:30:24.354Z,98397.63
2023-11-10T23:32:52.418Z,98404.22
2023-11-10T23:35:19.090Z,98399.13
2023-11-10T23:37:45.545Z,98394.81
2023-11-10T23:40:12.292Z,98387.25
2023-11-10T23:42:39.132Z,98380.19
2023-11-10T23:45:06.529Z,98375.84
2023-11-10T23:47:33.185Z,98376.16
2023-11-10T23:49:59.736Z,98380.44
2023-11-10T23:52:26.292Z,98372.25
2023-11-10T23:54:53.363Z,98367.69
2023-11-10T23:57:20.132Z,98368.03
2023-11-10T23:59:47.065Z,98353.09
